Terminal Aerodrome Forecast
Issued by NWS Grand Forks, ND

Home | Current Version | Previous Version | Text Only | Print | Product List | Glossary On
Versions: 1 2 3 4 5 6 7 8 9 10 11 12 13
000
FTUS43 KFGF 042340
TAFFAR
TAF
KFAR 042340Z 0500/0524 VRB04KT P6SM SKC
     FM050600 12006KT P6SM SCT250
     FM051500 14013KT P6SM BKN250=

USA.gov is the U.S. government's official web portal to all federal, state and local government web resources and services.